Buffalo, WY

3:00 PM MST on February 06, 2016 (GMT -0700)
Buffalo | | Change Station
CLOSE
Current Station
Personal Weather Station
Location: Buffalo, WY
Elevation: 4708 ft
Nearby Weather Stations
Active Advisory: Special Statement Active Notice: Public Information Statement

Elev 4708 ft 44.34 °N, 106.70 °W | Updated 4 seconds ago

Clear
Clear
41.9 °F
Feels Like 37 °F
N
8.1
Wind Variable Wind from North
Gusts 9.8 mph

Today
High -- | Low -- °F
--% Chance of Precip.
Yesterday
High -- | Low -- °F
Precip. -- in
Pressure 30.02 in
Visibility 10.0 miles
Clouds Clear
Windchill 37 °F
Dew Point 27 °F
Humidity 56%
Rainfall 0.02 in
Snow Depth Not available.
7:19 AM 5:22 PM
Waning Crescent, 4% visible
METAR KBYG 062153Z AUTO 36012G20KT 10SM CLR 04/M04 A2999 RMK AO2 PK WND 35030/2128 WSHFT 2120 PRESRR SLP164 T00391039 $
Pressure 30.02 in
Visibility 10.0 miles
Clouds Clear
Windchill 37 °F
Dew Point 27 °F
Humidity 56%
Rainfall 0.02 in
Snow Depth Not available.
7:19 AM 5:22 PM
Waning Crescent, 4% visible
METAR KBYG 062153Z AUTO 36012G20KT 10SM CLR 04/M04 A2999 RMK AO2 PK WND 35030/2128 WSHFT 2120 PRESRR SLP164 T00391039 $

10-Day Weather Forecast

Almanac

Astronomy

Feb. 06, 2016 Rise Set
Actual Time
Civil Twilight
Nautical Twilight
Astronomical Twilight
Moon
Length of Visible Light
Length of Day
Tomorrow will be .
, % of the Moon is Illuminated

Today's Extremes

State Highs State Lows

Community

WunderPhotos

Upload Photos

1,891,051 photos uploaded!

WunderBlog® & News

Nearby

Air Quality

  Air Quality AQ Index Pollutant
Not available.

Snow Depth

Station Depth Elevation

Earthquake Activity

City Distance Mag. Time & Date
Minimum magnitude displayed is 2.5.

Coastal Water Temperatures

Place Temperature

Stations

Nearby Weather Stations

Station Location Temp. Windchill Dew Point Humidity Wind Precip. Elev Updated Type
                   

Watches & Warnings

Special Statement
Issued: 3:32 AM MST Feb. 6, 2016 – National Weather Service

... Strong northwest wind tonight and Sunday...

Gusty northwest wind of 25 to 35 mph with gusts as high as 55 mph
expected to increase across portions of Johnson County this
evening... lasting through the day on Sunday before decreasing
later Sunday afternoon. Wind may create hazardous Crosswinds
across area roadways. Motorists on interstates 90 and 25 should
monitor travel conditions... especially those pulling light
trailers or in high profile vehicles.



332 am MST Sat Feb 6 2016

... Strong northwest wind tonight and Sunday...

Gusty northwest wind of 25 to 35 mph with gusts as high as 55 mph
expected to increase across portions of Johnson County this
evening... lasting through the day on Sunday before decreasing
later Sunday afternoon. Wind may create hazardous Crosswinds
across area roadways. Motorists on interstates 90 and 25 should
monitor travel conditions... especially those pulling light
trailers or in high profile vehicles.